Time;durP1;ratioP1;P1;durP2;ratioP2;P2;SDS_P1;SDS_P2;PMS_P1;PMS_P2;Temp;Humidity;BMP_temperature;BMP_pressure;BME280_temperature;BME280_humidity;BME280_pressure;Samples;Min_cycle;Max_cycle;Signal;HPM_P1;HPM_P2
2023/11/06 00:00:16;;;;;;;7.60;4.20;;;;;;;11.86;88.02;97248.30;107295;1261;67606;-37
2023/11/06 00:02:45;;;;;;;7.70;5.40;;;;;;;11.83;88.21;97247.88;107317;1257;70648;-37
2023/11/06 00:05:13;;;;;;;6.20;4.50;;;;;;;11.79;88.16;97250.22;107272;1260;60471;-37
2023/11/06 00:07:41;;;;;;;6.20;3.90;;;;;;;11.78;88.19;97249.08;107241;1257;59395;-37
2023/11/06 00:10:09;;;;;;;6.30;3.70;;;;;;;11.80;88.08;97246.26;107170;1257;72894;-37
2023/11/06 00:12:37;;;;;;;5.20;3.90;;;;;;;11.77;88.09;97239.09;107205;1257;67239;-36
2023/11/06 00:15:06;;;;;;;7.70;4.50;;;;;;;11.71;88.19;97239.33;107242;1257;71493;-37
2023/11/06 00:17:33;;;;;;;4.30;3.50;;;;;;;11.66;88.34;97242.85;107284;1257;60549;-37
2023/11/06 00:20:01;;;;;;;6.00;3.20;;;;;;;11.65;87.97;97246.98;107290;1257;59372;-37
2023/11/06 00:22:30;;;;;;;4.70;3.60;;;;;;;11.66;87.73;97260.34;107267;1257;73838;-37
2023/11/06 00:24:58;;;;;;;3.70;3.10;;;;;;;11.59;87.62;97256.86;107276;1257;67926;-37
2023/11/06 00:27:26;;;;;;;5.40;3.40;;;;;;;11.52;87.81;97255.30;107081;1260;71895;-36
2023/11/06 00:29:53;;;;;;;5.80;3.70;;;;;;;11.46;88.01;97250.98;107231;1257;61825;-36
2023/11/06 00:32:21;;;;;;;5.40;3.10;;;;;;;11.46;87.84;97250.21;107315;1257;60255;-37
2023/11/06 00:34:49;;;;;;;6.70;3.60;;;;;;;11.46;87.71;97247.64;107238;1257;73904;-36
2023/11/06 00:37:17;;;;;;;8.30;3.50;;;;;;;11.44;87.85;97251.86;107206;1257;67874;-37
2023/11/06 00:39:45;;;;;;;8.10;4.00;;;;;;;11.41;87.98;97258.52;107283;1257;72665;-36
2023/11/06 00:42:12;;;;;;;6.60;3.60;;;;;;;11.38;88.09;97262.66;107219;1257;60442;-36
2023/11/06 00:44:40;;;;;;;6.00;3.50;;;;;;;11.41;88.02;97260.77;107216;1257;60377;-37
2023/11/06 00:47:08;;;;;;;4.20;3.20;;;;;;;11.43;88.07;97262.55;107261;1262;73856;-37
2023/11/06 00:49:36;;;;;;;4.30;3.50;;;;;;;11.41;88.15;97268.19;107288;1256;66169;-37
2023/11/06 00:52:05;;;;;;;7.30;3.60;;;;;;;11.36;88.46;97273.86;107215;1258;72717;-37
2023/11/06 00:54:33;;;;;;;6.30;3.70;;;;;;;11.35;88.55;97282.56;107317;1260;61672;-37
2023/11/06 00:57:00;;;;;;;6.20;3.30;;;;;;;11.42;88.46;97293.14;107294;1257;60299;-37
2023/11/06 00:59:28;;;;;;;8.50;4.30;;;;;;;11.45;88.59;97298.83;107285;1257;73090;-37
2023/11/06 01:01:56;;;;;;;8.20;3.90;;;;;;;11.46;88.61;97303.92;107125;1260;67900;-37
2023/11/06 01:04:24;;;;;;;5.30;3.40;;;;;;;11.45;88.69;97308.52;107269;1258;70496;-37
2023/11/06 01:06:54;;;;;;;7.80;4.20;;;;;;;11.43;88.65;97303.52;107029;1260;60568;-37
2023/11/06 01:09:22;;;;;;;4.50;3.10;;;;;;;11.46;88.27;97311.68;107025;1258;60060;-37
2023/11/06 01:11:49;;;;;;;4.80;3.40;;;;;;;11.48;88.00;97312.25;107093;1260;72232;-37
2023/11/06 01:14:17;;;;;;;6.80;3.70;;;;;;;11.45;87.90;97314.34;107101;1260;67561;-37
2023/11/06 01:16:45;;;;;;;5.10;3.30;;;;;;;11.39;88.18;97313.20;107026;1258;72730;-37
2023/11/06 01:19:12;;;;;;;4.10;3.20;;;;;;;11.35;88.17;97317.45;107062;1260;60395;-36
2023/11/06 01:21:40;;;;;;;5.30;3.00;;;;;;;11.34;88.04;97320.55;107063;1265;60467;-37
2023/11/06 01:24:09;;;;;;;6.80;3.50;;;;;;;11.34;87.85;97319.39;107056;1258;73836;-37
2023/11/06 01:26:42;;;;;;;7.10;3.60;;;;;;;11.30;87.74;97316.05;107137;1262;67572;-37
2023/11/06 01:29:11;;;;;;;7.00;3.50;;;;;;;11.23;87.74;97314.54;107071;1260;72634;-36
2023/11/06 01:31:39;;;;;;;5.40;3.50;;;;;;;11.18;87.72;97310.46;107024;1257;61975;-37
2023/11/06 01:34:07;;;;;;;5.30;3.20;;;;;;;11.19;87.66;97310.59;106968;1260;60306;-36
2023/11/06 01:36:34;;;;;;;7.50;3.80;;;;;;;11.19;87.51;97314.52;107003;1260;73907;-37
2023/11/06 01:39:02;;;;;;;5.00;3.40;;;;;;;11.15;87.37;97323.21;107024;1259;67574;-36
2023/11/06 01:41:30;;;;;;;7.60;3.80;;;;;;;11.08;87.40;97329.52;107089;1260;70247;-37
2023/11/06 01:43:58;;;;;;;6.40;3.50;;;;;;;11.03;87.29;97335.10;107029;1260;61713;-36
2023/11/06 01:46:26;;;;;;;6.20;3.00;;;;;;;11.02;87.13;97338.91;106992;1258;60293;-37
2023/11/06 01:48:55;;;;;;;7.30;3.30;;;;;;;11.03;86.85;97350.19;107075;1260;73831;-36
2023/11/06 01:51:23;;;;;;;7.10;3.20;;;;;;;10.99;86.76;97355.06;107037;1260;67652;-36
2023/11/06 01:53:51;;;;;;;6.70;3.20;;;;;;;10.94;87.00;97358.70;107038;1260;71478;-36
2023/11/06 01:56:18;;;;;;;4.70;3.20;;;;;;;10.92;86.86;97362.14;107188;1260;61726;-36
2023/11/06 01:58:46;;;;;;;4.80;2.70;;;;;;;10.95;86.47;97371.25;107103;1260;60310;-36
2023/11/06 02:01:15;;;;;;;4.40;3.00;;;;;;;10.95;86.07;97383.55;106978;1259;73878;-36
2023/11/06 02:03:42;;;;;;;7.10;3.20;;;;;;;10.86;86.17;97387.87;107074;1262;67975;-36
2023/11/06 02:06:10;;;;;;;6.50;3.00;;;;;;;10.75;86.28;97389.63;107084;1262;72716;-36
2023/11/06 02:08:38;;;;;;;4.90;3.10;;;;;;;10.68;86.51;97394.53;106886;1260;61727;-37
2023/11/06 02:11:05;;;;;;;5.40;3.00;;;;;;;10.68;86.38;97399.64;107055;1258;59330;-36
2023/11/06 02:13:34;;;;;;;6.30;3.20;;;;;;;10.71;86.16;97396.27;107058;1258;73999;-36
2023/11/06 02:16:03;;;;;;;8.90;3.70;;;;;;;10.67;86.07;97391.13;107087;1258;67566;-36
2023/11/06 02:18:31;;;;;;;5.00;3.20;;;;;;;10.61;86.27;97401.74;107027;1260;73051;-37
2023/11/06 02:20:58;;;;;;;4.60;2.90;;;;;;;10.54;86.33;97406.65;107027;1258;61701;-36
2023/11/06 02:23:29;;;;;;;6.60;2.70;;;;;;;10.52;86.28;97413.77;107033;1264;60310;-36
2023/11/06 02:25:57;;;;;;;7.50;3.30;;;;;;;10.49;86.34;97417.54;107094;1258;73805;-37
2023/11/06 02:28:25;;;;;;;9.40;3.30;;;;;;;10.40;86.53;97423.21;107032;1261;67562;-36
2023/11/06 02:30:53;;;;;;;4.90;3.30;;;;;;;10.31;86.80;97423.70;107096;1260;72087;-36
2023/11/06 02:33:20;;;;;;;5.70;3.30;;;;;;;10.23;86.99;97431.06;107037;1260;60595;-37
2023/11/06 02:35:48;;;;;;;4.40;3.10;;;;;;;10.20;87.08;97433.89;107061;1260;60030;-36
2023/11/06 02:38:16;;;;;;;8.60;3.60;;;;;;;10.18;87.23;97435.07;107097;1257;73879;-37
2023/11/06 02:40:44;;;;;;;6.40;3.70;;;;;;;10.13;87.53;97434.55;107073;1260;66940;-36
2023/11/06 02:43:12;;;;;;;5.40;3.30;;;;;;;10.06;87.89;97437.57;107057;1260;72667;-36
2023/11/06 02:45:39;;;;;;;6.60;3.50;;;;;;;9.99;88.09;97439.41;107076;1260;61663;-37
2023/11/06 02:48:08;;;;;;;4.50;3.20;;;;;;;9.98;88.17;97442.42;107000;1260;61047;-36
2023/11/06 02:50:36;;;;;;;4.60;3.20;;;;;;;9.99;88.05;97444.73;107037;1258;73937;-36
2023/11/06 02:53:03;;;;;;;6.70;3.60;;;;;;;9.95;88.21;97443.93;106999;1258;67576;-36
2023/11/06 02:55:32;;;;;;;6.20;3.60;;;;;;;9.89;88.50;97446.38;107029;1260;71456;-36
2023/11/06 02:58:00;;;;;;;5.50;3.90;;;;;;;9.84;88.68;97448.13;107010;1260;61718;-37
2023/11/06 03:00:29;;;;;;;5.50;3.50;;;;;;;9.85;88.64;97454.70;107045;1259;60089;-36
2023/11/06 03:02:57;;;;;;;6.90;3.40;;;;;;;9.87;88.66;97458.00;107010;1260;72612;-36
2023/11/06 03:05:24;;;;;;;9.70;4.50;;;;;;;9.85;88.81;97466.06;107102;1258;67913;-36
2023/11/06 03:07:52;;;;;;;8.70;4.00;;;;;;;9.79;89.32;97463.64;106979;1262;72707;-36
2023/11/06 03:10:20;;;;;;;5.70;3.90;;;;;;;9.76;89.39;97467.85;107096;1260;61678;-37
2023/11/06 03:12:47;;;;;;;9.20;3.80;;;;;;;9.79;89.59;97467.11;107067;1258;60028;-36
2023/11/06 03:15:15;;;;;;;7.20;4.00;;;;;;;9.81;89.58;97475.77;107056;1260;72568;-36
2023/11/06 03:17:43;;;;;;;7.50;3.70;;;;;;;9.78;89.90;97475.48;107025;1258;67880;-36
2023/11/06 03:20:11;;;;;;;5.80;3.90;;;;;;;9.73;90.23;97477.38;107026;1259;72665;-37
2023/11/06 03:22:39;;;;;;;5.00;3.40;;;;;;;9.70;90.36;97476.39;107040;1260;61995;-36
2023/11/06 03:25:09;;;;;;;6.20;3.40;;;;;;;9.75;90.16;97476.90;107057;1260;60898;-36
2023/11/06 03:27:37;;;;;;;8.40;4.10;;;;;;;9.77;90.05;97476.66;107082;1260;73916;-36
2023/11/06 03:30:05;;;;;;;4.80;3.60;;;;;;;9.74;89.99;97482.54;107060;1262;67587;-36
2023/11/06 03:32:33;;;;;;;7.60;3.90;;;;;;;9.71;90.13;97490.45;107100;1258;73121;-36
2023/11/06 03:35:00;;;;;;;5.30;3.90;;;;;;;9.69;90.17;97488.15;107071;1257;61949;-36
2023/11/06 03:37:28;;;;;;;4.00;3.30;;;;;;;9.72;89.81;97491.08;107066;1262;60984;-37
2023/11/06 03:39:57;;;;;;;5.80;4.10;;;;;;;9.73;89.54;97490.83;107063;1260;73873;-37
2023/11/06 03:42:25;;;;;;;6.00;4.30;;;;;;;9.68;89.56;97493.73;107047;1260;66433;-37
2023/11/06 03:44:52;;;;;;;9.00;5.00;;;;;;;9.58;89.67;97500.30;107188;1260;72654;-37
2023/11/06 03:47:20;;;;;;;5.20;3.80;;;;;;;9.52;89.68;97501.11;107154;1257;60508;-37
2023/11/06 03:49:48;;;;;;;4.60;3.60;;;;;;;9.52;89.40;97501.35;106885;1260;60015;-37
2023/11/06 03:52:16;;;;;;;5.10;3.30;;;;;;;9.53;89.30;97497.16;106959;1258;74351;-37
2023/11/06 03:54:44;;;;;;;4.30;3.30;;;;;;;9.48;89.34;97498.98;106970;1260;67597;-37
2023/11/06 03:57:11;;;;;;;5.40;3.40;;;;;;;9.40;89.49;97503.59;106993;1260;71460;-37
2023/11/06 03:59:40;;;;;;;4.90;3.20;;;;;;;9.35;89.90;97498.60;107048;1260;60431;-37
2023/11/06 04:02:09;;;;;;;4.70;3.00;;;;;;;9.36;89.74;97507.55;107004;1257;60172;-37
2023/11/06 04:04:36;;;;;;;8.90;3.80;;;;;;;9.37;89.64;97511.73;106976;1260;74247;-37
2023/11/06 04:07:04;;;;;;;5.00;3.10;;;;;;;9.35;89.79;97511.81;107245;1258;67563;-37
2023/11/06 04:09:32;;;;;;;8.80;3.40;;;;;;;9.30;90.00;97517.55;107194;1262;72492;-37
2023/11/06 04:12:02;;;;;;;3.40;2.60;;;;;;;9.29;90.05;97527.92;107013;1261;61668;-37
2023/11/06 04:14:30;;;;;;;4.30;2.50;;;;;;;9.32;89.83;97539.17;107217;1260;60055;-37
2023/11/06 04:16:58;;;;;;;4.30;3.00;;;;;;;9.33;89.66;97543.50;107053;1260;72858;-37
2023/11/06 04:19:25;;;;;;;6.10;3.70;;;;;;;9.31;89.71;97547.13;107058;1257;67584;-37
2023/11/06 04:21:53;;;;;;;4.50;3.20;;;;;;;9.27;89.78;97552.95;106992;1262;72792;-37
2023/11/06 04:24:20;;;;;;;6.50;3.40;;;;;;;9.26;89.81;97557.98;107049;1262;61682;-37
2023/11/06 04:26:50;;;;;;;4.90;3.10;;;;;;;9.29;89.54;97563.60;107049;1257;60475;-37
2023/11/06 04:29:18;;;;;;;;;;;;;;;9.30;89.49;97570.16;107280;1260;74944;-37
2023/11/06 04:31:46;;;;;;;4.60;3.30;;;;;;;9.28;89.54;97575.59;107052;1263;67933;-37
2023/11/06 04:34:13;;;;;;;5.10;3.20;;;;;;;9.23;89.51;97582.48;107041;1257;72698;-37
2023/11/06 04:36:41;;;;;;;2.70;2.30;;;;;;;9.21;89.25;97588.67;107030;1260;61683;-37
2023/11/06 04:39:12;;;;;;;8.00;2.50;;;;;;;9.22;88.94;97593.61;107079;1258;60534;-37
2023/11/06 04:41:41;;;;;;;4.50;2.50;;;;;;;9.18;88.90;97595.72;107088;1258;73904;-37
2023/11/06 04:44:08;;;;;;;4.40;2.30;;;;;;;9.12;88.94;97598.76;107105;1260;66597;-37
2023/11/06 04:46:36;;;;;;;7.50;2.20;;;;;;;9.07;88.92;97604.55;107033;1260;72688;-37
2023/11/06 04:49:04;;;;;;;3.10;2.00;;;;;;;9.08;88.61;97607.34;106943;1259;61568;-37
2023/11/06 04:51:31;;;;;;;8.10;2.40;;;;;;;9.08;88.62;97614.37;106978;1262;60014;-37
2023/11/06 04:53:59;;;;;;;4.40;2.40;;;;;;;9.03;88.57;97615.08;107107;1260;73858;-37
2023/11/06 04:56:26;;;;;;;4.90;2.30;;;;;;;8.95;88.68;97621.35;107215;1260;67879;-37
2023/11/06 04:58:54;;;;;;;2.80;2.20;;;;;;;8.91;88.67;97627.23;107195;1258;72532;-37
2023/11/06 05:01:22;;;;;;;4.20;2.30;;;;;;;8.93;88.43;97627.39;107107;1258;61689;-37
2023/11/06 05:03:49;;;;;;;4.70;3.20;;;;;;;8.91;88.36;97630.86;106976;1257;60913;-37
2023/11/06 05:06:17;;;;;;;6.00;3.50;;;;;;;8.89;88.33;97635.73;107010;1263;73854;-37
2023/11/06 05:08:44;;;;;;;5.20;3.00;;;;;;;8.84;88.52;97635.14;106984;1260;67625;-37
2023/11/06 05:11:12;;;;;;;7.60;2.70;;;;;;;8.81;88.54;97636.14;107045;1262;72721;-37
2023/11/06 05:13:41;;;;;;;5.70;2.10;;;;;;;8.84;88.38;97638.05;107125;1257;61743;-37
2023/11/06 05:16:09;;;;;;;2.50;2.20;;;;;;;8.86;88.23;97636.66;106806;1263;187267;-37
2023/11/06 05:19:57;;;;;;;4.50;2.50;;;;;;;8.85;88.28;97641.53;104358;1290;601179;-36
2023/11/06 05:22:25;;;;;;;4.00;2.20;;;;;;;8.82;88.35;97647.94;106639;1264;61681;-36
2023/11/06 05:24:52;;;;;;;3.60;2.10;;;;;;;8.84;88.18;97659.98;106633;1264;59193;-36
2023/11/06 05:27:20;;;;;;;4.30;2.20;;;;;;;8.87;88.04;97663.45;106771;1264;72705;-36
2023/11/06 05:29:48;;;;;;;4.30;2.90;;;;;;;8.86;88.21;97666.63;106739;1264;66319;-38
2023/11/06 05:32:15;;;;;;;4.90;2.40;;;;;;;8.84;88.55;97673.34;106730;1264;72786;-38
2023/11/06 05:34:43;;;;;;;6.10;2.10;;;;;;;8.84;88.60;97678.29;106747;1261;151135;-37
2023/11/06 05:37:11;;;;;;;3.30;2.10;;;;;;;8.90;88.32;97683.23;106852;1261;60011;-37
2023/11/06 05:39:39;;;;;;;4.40;2.50;;;;;;;8.95;88.29;97685.67;106850;1268;72229;-37
2023/11/06 05:42:07;;;;;;;2.50;2.30;;;;;;;8.95;88.23;97691.63;106869;1261;67567;-37
2023/11/06 05:44:34;;;;;;;7.00;2.20;;;;;;;8.94;88.27;97699.66;106889;1264;71853;-37
2023/11/06 05:47:02;;;;;;;3.50;2.00;;;;;;;8.94;88.32;97705.23;106808;1261;61709;-36
2023/11/06 05:49:30;;;;;;;2.10;1.50;;;;;;;8.99;88.01;97711.16;106780;1261;60025;-37
2023/11/06 05:51:59;;;;;;;4.50;2.10;;;;;;;9.03;87.85;97718.64;106808;1261;71868;-37
2023/11/06 05:54:28;;;;;;;2.30;2.10;;;;;;;9.02;88.03;97718.17;106796;1261;66694;-37
2023/11/06 05:56:55;;;;;;;4.10;2.30;;;;;;;9.01;88.06;97719.02;106732;1261;71857;-37
2023/11/06 05:59:23;;;;;;;5.10;2.10;;;;;;;9.04;87.95;97721.41;106855;1262;61655;-37
2023/11/06 06:01:50;;;;;;;2.90;2.00;;;;;;;9.10;87.85;97727.89;106887;1261;60149;-37
2023/11/06 06:04:20;;;;;;;4.40;2.10;;;;;;;9.11;87.66;97730.52;106858;1267;73059;-37
2023/11/06 06:06:54;;;;;;;3.40;2.10;;;;;;;9.11;87.71;97729.13;106873;1268;66791;-37
2023/11/06 06:09:21;;;;;;;6.70;1.90;;;;;;;9.15;87.78;97733.07;106886;1261;72673;-37
2023/11/06 06:11:49;;;;;;;3.90;1.90;;;;;;;9.23;87.58;97732.21;106840;1261;61646;-37
2023/11/06 06:14:17;;;;;;;2.80;2.10;;;;;;;9.29;87.48;97737.60;106859;1261;59489;-37
2023/11/06 06:16:48;;;;;;;3.10;2.30;;;;;;;9.32;87.44;97742.38;106859;1261;73173;-37
2023/11/06 06:19:17;;;;;;;2.50;2.10;;;;;;;9.35;87.24;97741.69;106859;1261;66741;-37
2023/11/06 06:21:45;;;;;;;2.80;1.90;;;;;;;9.42;87.10;97743.90;106918;1261;73086;-37
2023/11/06 06:24:13;;;;;;;5.00;1.80;;;;;;;9.52;86.51;97739.93;106844;1264;60461;-37
2023/11/06 06:26:41;;;;;;;2.90;1.90;;;;;;;9.62;86.35;97740.05;107116;1258;59997;-37
2023/11/06 06:29:08;;;;;;;4.40;1.90;;;;;;;9.67;85.73;97740.58;107039;1260;71785;-37
2023/11/06 06:31:38;;;;;;;4.90;1.90;;;;;;;9.71;85.44;97745.66;107079;1261;67878;-37
2023/11/06 06:34:06;;;;;;;3.70;1.90;;;;;;;9.81;84.97;97747.24;107068;1261;71375;-37
2023/11/06 06:36:34;;;;;;;4.20;1.60;;;;;;;9.91;84.36;97746.04;107048;1259;59644;-37
2023/11/06 06:39:05;;;;;;;2.60;1.80;;;;;;;9.98;84.25;97747.32;107326;1254;60112;-36
2023/11/06 06:41:34;;;;;;;2.10;1.60;;;;;;;10.02;83.36;97749.77;107266;1254;73110;-37
2023/11/06 06:44:01;;;;;;;3.60;1.70;;;;;;;10.08;83.29;97750.15;107256;1254;67570;-37
2023/11/06 06:46:29;;;;;;;2.10;1.60;;;;;;;10.19;82.43;97754.20;107221;1257;72648;-36
2023/11/06 06:48:57;;;;;;;2.00;1.50;;;;;;;10.30;81.51;97757.09;107272;1255;59617;-36
2023/11/06 06:51:24;;;;;;;2.70;1.40;;;;;;;10.38;80.97;97764.95;107322;1255;60063;-36
2023/11/06 06:53:52;;;;;;;3.50;1.30;;;;;;;10.43;80.01;97763.97;107403;1260;72267;-37
2023/11/06 06:56:20;;;;;;;3.40;1.10;;;;;;;10.50;79.64;97776.55;107355;1254;66414;-37
2023/11/06 06:58:48;;;;;;;3.40;1.20;;;;;;;10.61;78.62;97784.14;107267;1254;73154;-36
2023/11/06 07:01:17;;;;;;;1.30;1.10;;;;;;;10.71;77.77;97779.04;107277;1257;60083;-37
2023/11/06 07:03:45;;;;;;;1.20;1.10;;;;;;;10.76;76.78;97778.54;107390;1254;60167;-37
2023/11/06 07:06:14;;;;;;;3.40;1.30;;;;;;;10.79;76.90;97784.34;107357;1254;73133;-36
2023/11/06 07:08:43;;;;;;;2.00;1.30;;;;;;;10.84;77.35;97782.58;107270;1255;68917;-36
2023/11/06 07:11:10;;;;;;;2.20;1.30;;;;;;;10.92;76.28;97788.79;107499;1254;72694;-36
2023/11/06 07:13:38;;;;;;;3.90;1.50;;;;;;;10.97;75.89;97796.36;107271;1260;60027;-37
2023/11/06 07:16:07;;;;;;;3.50;1.50;;;;;;;10.99;75.71;97793.85;107304;1256;60249;-36
2023/11/06 07:18:34;;;;;;;1.90;1.40;;;;;;;11.02;75.97;97798.95;107295;1261;73167;-37
2023/11/06 07:21:03;;;;;;;3.20;1.20;;;;;;;11.10;75.40;97804.00;107258;1256;66977;-36
2023/11/06 07:23:31;;;;;;;3.00;1.30;;;;;;;11.18;75.00;97806.25;107251;1257;71448;-36
2023/11/06 07:25:59;;;;;;;3.10;1.50;;;;;;;11.21;74.94;97807.31;107265;1256;60058;-37
2023/11/06 07:28:27;;;;;;;2.70;1.30;;;;;;;11.23;74.68;97809.06;107261;1256;59996;-37
2023/11/06 07:30:55;;;;;;;1.50;1.20;;;;;;;11.28;75.04;97811.13;107166;1261;70794;-37
2023/11/06 07:33:22;;;;;;;2.50;1.30;;;;;;;11.39;74.77;97819.63;107116;1257;66636;-36
2023/11/06 07:35:51;;;;;;;1.20;0.90;;;;;;;11.47;73.20;97824.29;107143;1257;73799;-36
2023/11/06 07:38:18;;;;;;;1.40;1.10;;;;;;;11.50;73.22;97831.62;107099;1258;60104;-37
2023/11/06 07:40:46;;;;;;;1.40;1.30;;;;;;;11.52;73.64;97831.83;107180;1256;60007;-36
2023/11/06 07:43:14;;;;;;;2.60;1.20;;;;;;;11.58;73.26;97831.38;107202;1256;73259;-37
2023/11/06 07:45:41;;;;;;;2.90;1.20;;;;;;;11.69;72.98;97832.60;107256;1257;69745;-37
2023/11/06 07:48:09;;;;;;;3.90;1.30;;;;;;;11.75;72.38;97841.27;107286;1257;72702;-37
2023/11/06 07:50:38;;;;;;;2.60;1.10;;;;;;;11.77;72.42;97836.18;107259;1257;59596;-37
2023/11/06 07:53:05;;;;;;;1.50;1.40;;;;;;;11.79;72.05;97840.13;107248;1262;59743;-37
2023/11/06 07:55:33;;;;;;;1.70;1.10;;;;;;;11.86;72.08;97843.70;107263;1256;75208;-37
2023/11/06 07:58:01;;;;;;;2.10;1.30;;;;;;;11.96;71.88;97843.90;107269;1256;67253;-37
2023/11/06 08:00:29;;;;;;;1.60;1.20;;;;;;;12.00;71.62;97847.73;107262;1256;74849;-37
2023/11/06 08:03:13;;;;;;;1.40;1.30;;;;;;;12.03;72.09;97849.41;107100;1257;61938;-37
2023/11/06 08:05:41;;;;;;;2.70;1.30;;;;;;;12.07;72.40;97854.95;107246;1257;60268;-36
2023/11/06 08:08:10;;;;;;;1.90;1.40;;;;;;;12.17;72.06;97858.87;107270;1256;73139;-37
2023/11/06 08:10:38;;;;;;;1.90;1.30;;;;;;;12.29;71.25;97867.52;107271;1257;70604;-37
2023/11/06 08:13:05;;;;;;;2.40;1.40;;;;;;;12.33;71.22;97870.95;107231;1257;72673;-37
2023/11/06 08:15:33;;;;;;;2.80;1.50;;;;;;;12.36;70.40;97878.20;107253;1259;59625;-37
2023/11/06 08:18:01;;;;;;;1.80;1.60;;;;;;;12.39;70.42;97878.42;107246;1257;60427;-37
2023/11/06 08:20:31;;;;;;;2.10;1.30;;;;;;;12.46;70.52;97880.48;107256;1257;71921;-37
2023/11/06 08:22:59;;;;;;;2.60;1.70;;;;;;;12.57;69.36;97877.55;107276;1257;68079;-37
2023/11/06 08:25:27;;;;;;;6.60;1.70;;;;;;;12.63;68.88;97882.13;107103;1255;72708;-37
2023/11/06 08:27:54;;;;;;;2.30;1.60;;;;;;;12.67;69.19;97888.30;107155;1256;60086;-37
2023/11/06 08:30:23;;;;;;;2.90;1.40;;;;;;;12.72;69.22;97889.71;107123;1257;59235;-36
2023/11/06 08:32:50;;;;;;;2.30;1.40;;;;;;;12.78;69.01;97900.35;107124;1258;72814;-37
2023/11/06 08:35:19;;;;;;;2.60;1.40;;;;;;;12.86;67.79;97894.80;107280;1260;67554;-36
2023/11/06 08:37:47;;;;;;;3.00;1.50;;;;;;;12.93;68.14;97904.96;107252;1258;71434;-36
2023/11/06 08:40:17;;;;;;;2.50;1.70;;;;;;;12.92;67.30;97901.23;107220;1257;60111;-36
2023/11/06 08:42:45;;;;;;;3.20;1.70;;;;;;;12.91;66.71;97900.34;107243;1261;59494;-38
2023/11/06 08:45:13;;;;;;;2.40;1.60;;;;;;;12.91;67.15;97904.92;107229;1257;73500;-36
2023/11/06 08:47:41;;;;;;;3.60;1.60;;;;;;;12.93;66.92;97907.91;107275;1257;67907;-36
2023/11/06 08:50:09;;;;;;;2.40;1.60;;;;;;;13.05;67.03;97912.88;107229;1260;72735;-36
2023/11/06 08:52:37;;;;;;;4.10;1.90;;;;;;;13.15;66.78;97914.16;107297;1260;60461;-37
2023/11/06 08:55:05;;;;;;;2.00;1.60;;;;;;;13.24;66.54;97911.84;107252;1257;59565;-36
2023/11/06 08:57:33;;;;;;;3.20;1.90;;;;;;;13.33;66.40;97911.25;107318;1260;71793;-37
2023/11/06 09:00:01;;;;;;;1.60;1.30;;;;;;;13.43;66.67;97916.30;107222;1257;66669;-36
2023/11/06 09:02:30;;;;;;;2.80;1.40;;;;;;;13.52;65.03;97915.46;107201;1260;71602;-37
2023/11/06 09:04:58;;;;;;;2.90;1.30;;;;;;;13.60;63.67;97919.61;107296;1262;60064;-36
2023/11/06 09:07:27;;;;;;;1.50;1.20;;;;;;;13.62;63.68;97922.30;107216;1257;60064;-37
2023/11/06 09:09:55;;;;;;;2.00;1.30;;;;;;;13.59;63.39;97915.29;107231;1258;73097;-37
2023/11/06 09:12:22;;;;;;;4.50;1.30;;;;;;;13.56;63.75;97911.81;107261;1256;66398;-37
2023/11/06 09:14:50;;;;;;;2.90;1.50;;;;;;;13.57;64.18;97910.95;107219;1256;73080;-37
2023/11/06 09:17:17;;;;;;;1.90;1.20;;;;;;;13.61;64.64;97920.93;107229;1258;61021;-37
2023/11/06 09:19:46;;;;;;;2.60;1.40;;;;;;;13.67;64.40;97922.14;107268;1256;60032;-37
2023/11/06 09:22:14;;;;;;;2.30;1.50;;;;;;;13.73;63.89;97932.70;107085;1256;73006;-37
2023/11/06 09:24:42;;;;;;;2.10;1.50;;;;;;;13.70;63.83;97935.79;107099;1261;65602;-37
2023/11/06 09:27:09;;;;;;;2.40;1.70;;;;;;;13.63;64.09;97938.23;107057;1261;72668;-37
2023/11/06 09:29:37;;;;;;;2.10;1.90;;;;;;;13.56;64.00;97938.14;107118;1256;62293;-37
2023/11/06 09:32:05;;;;;;;1.90;1.70;;;;;;;13.47;64.60;97940.58;107182;1257;60414;-36
2023/11/06 09:34:36;;;;;;;3.20;1.60;;;;;;;13.44;64.98;97947.63;107106;1256;73244;-37
2023/11/06 09:37:04;;;;;;;2.90;1.90;;;;;;;13.46;65.00;97948.08;107170;1262;67564;-37
2023/11/06 09:39:32;;;;;;;3.80;2.10;;;;;;;13.55;65.03;97948.02;107136;1262;72771;-36
2023/11/06 09:41:59;;;;;;;3.70;2.20;;;;;;;13.59;65.27;97951.61;107196;1261;60416;-37
2023/11/06 09:44:28;;;;;;;4.50;2.30;;;;;;;13.58;65.52;97955.04;107235;1262;59769;-37
2023/11/06 09:46:56;;;;;;;3.20;2.30;;;;;;;13.50;65.86;97961.31;107225;1258;74000;-37
2023/11/06 09:49:26;;;;;;;4.20;2.00;;;;;;;13.41;65.58;97965.02;107011;1263;66277;-37
2023/11/06 09:51:55;;;;;;;3.20;2.00;;;;;;;13.32;64.79;97969.98;107192;1256;72701;-37
2023/11/06 09:54:26;;;;;;;3.00;1.60;;;;;;;13.27;65.32;97978.91;107155;1259;60373;-37
2023/11/06 09:56:54;;;;;;;3.70;1.30;;;;;;;13.20;65.69;97981.50;107161;1261;60305;-37
2023/11/06 09:59:22;;;;;;;1.70;1.30;;;;;;;13.13;64.97;97983.77;107214;1262;72928;-37
2023/11/06 10:01:53;;;;;;;1.90;1.50;;;;;;;13.06;64.96;97981.66;107094;1262;68444;-37
2023/11/06 10:04:21;;;;;;;1.60;1.20;;;;;;;13.02;65.73;97983.27;107165;1262;73148;-37
2023/11/06 10:06:50;;;;;;;2.60;1.40;;;;;;;12.99;65.04;97983.70;107305;1256;61715;-37
2023/11/06 10:09:19;;;;;;;1.80;1.10;;;;;;;13.03;64.96;97989.24;107233;1256;59778;-37
2023/11/06 10:11:47;;;;;;;1.50;1.20;;;;;;;13.04;64.70;97991.17;107252;1261;74711;-37
2023/11/06 10:14:15;;;;;;;1.70;0.90;;;;;;;13.06;64.36;98000.63;107204;1257;66730;-37
2023/11/06 10:16:43;;;;;;;2.70;1.20;;;;;;;13.14;64.08;98000.39;107242;1260;74795;-38
2023/11/06 10:19:12;;;;;;;1.70;1.10;;;;;;;13.22;64.17;97996.80;107226;1260;61044;-38
2023/11/06 10:21:43;;;;;;;1.80;1.10;;;;;;;13.28;63.67;98007.36;107272;1258;61082;-38
2023/11/06 10:24:13;;;;;;;1.00;0.80;;;;;;;13.32;63.74;98005.83;107256;1262;73325;-37
2023/11/06 10:26:42;;;;;;;2.20;0.90;;;;;;;13.40;63.42;98005.39;107247;1260;67747;-36
2023/11/06 10:29:11;;;;;;;1.40;0.90;;;;;;;13.49;63.59;98009.39;107231;1257;73733;-36
2023/11/06 10:31:40;;;;;;;2.60;1.00;;;;;;;13.59;63.28;98002.87;107100;1258;59624;-37
2023/11/06 10:34:37;;;;;;;2.20;1.20;;;;;;;13.73;62.66;98002.66;107120;1257;59940;-37
2023/11/06 10:37:10;;;;;;;1.10;1.00;;;;;;;13.84;62.50;97998.75;107108;1257;73787;-36
2023/11/06 10:39:40;;;;;;;1.10;1.00;;;;;;;13.92;62.06;98000.41;107122;1258;66519;-36
2023/11/06 10:42:11;;;;;;;4.20;3.80;;;;;;;14.02;61.86;98002.20;107278;1262;73743;-36
2023/11/06 10:44:39;;;;;;;1.60;1.00;;;;;;;14.19;60.56;98005.48;107189;1261;59355;-36
2023/11/06 10:47:08;;;;;;;1.70;0.90;;;;;;;14.39;59.39;98013.58;107261;1261;60445;-37
2023/11/06 10:49:42;;;;;;;1.50;1.20;;;;;;;14.50;58.46;98011.03;107278;1262;76121;-37
2023/11/06 10:52:10;;;;;;;1.30;1.00;;;;;;;14.55;58.50;98021.60;107175;1258;67873;-36
2023/11/06 10:54:38;;;;;;;2.70;1.10;;;;;;;14.60;58.48;98023.87;107200;1261;73023;-36
2023/11/06 10:57:08;;;;;;;2.60;1.10;;;;;;;14.64;58.50;98019.73;107089;1259;60470;-37
2023/11/06 10:59:36;;;;;;;2.20;0.90;;;;;;;14.62;57.58;98020.32;107205;1257;60766;-37
2023/11/06 11:02:04;;;;;;;1.70;1.00;;;;;;;14.49;57.63;98027.42;107208;1262;76103;-37
2023/11/06 11:04:32;;;;;;;3.60;1.20;;;;;;;14.32;58.30;98032.60;107295;1260;70178;-37
2023/11/06 11:07:01;;;;;;;1.70;1.10;;;;;;;14.14;59.03;98035.23;107226;1261;74891;-37
2023/11/06 11:09:29;;;;;;;1.10;1.00;;;;;;;13.96;58.70;98042.46;107177;1257;60659;-37
2023/11/06 11:11:58;;;;;;;3.90;0.90;;;;;;;13.80;59.81;98048.08;107208;1258;62160;-36
2023/11/06 11:14:26;;;;;;;3.80;1.10;;;;;;;13.65;59.85;98052.59;107132;1260;76074;-37
2023/11/06 11:16:54;;;;;;;1.70;1.10;;;;;;;13.55;60.31;98056.00;106993;1261;68717;-37
2023/11/06 11:19:24;;;;;;;1.80;1.10;;;;;;;13.47;61.01;98058.98;107220;1257;71782;-37
2023/11/06 11:22:06;;;;;;;1.60;1.10;;;;;;;13.44;61.19;98061.28;107191;1256;61927;-37
2023/11/06 11:24:55;;;;;;;1.90;1.10;;;;;;;13.49;61.35;98067.28;107262;1260;60240;-37
2023/11/06 11:27:24;;;;;;;2.50;1.20;;;;;;;13.49;61.31;98063.32;107171;1262;74302;-37
2023/11/06 11:29:58;;;;;;;1.70;1.20;;;;;;;13.44;61.31;98064.77;107277;1261;67869;-37
2023/11/06 11:32:29;;;;;;;2.90;1.30;;;;;;;13.41;61.19;98064.20;107307;1257;74788;-37
2023/11/06 11:35:14;;;;;;;1.80;1.20;;;;;;;13.37;61.59;98060.13;107275;1262;60822;-37